sensor_id;sensor_type;location;lat;lon;timestamp;P1;durP1;ratioP1;P2;durP2;ratioP2
11988;SDS011;6054;50.966;7.094;2023-04-02T00:02:31;13.07;;;8.00;;
11988;SDS011;6054;50.966;7.094;2023-04-02T00:08:17;10.45;;;7.45;;
11988;SDS011;6054;50.966;7.094;2023-04-02T00:10:46;10.85;;;7.57;;
11988;SDS011;6054;50.966;7.094;2023-04-02T00:13:19;11.30;;;8.13;;
11988;SDS011;6054;50.966;7.094;2023-04-02T00:15:53;10.60;;;7.75;;
11988;SDS011;6054;50.966;7.094;2023-04-02T00:18:27;13.80;;;8.25;;
11988;SDS011;6054;50.966;7.094;2023-04-02T00:20:59;12.98;;;8.25;;
11988;SDS011;6054;50.966;7.094;2023-04-02T00:23:34;10.05;;;7.30;;
11988;SDS011;6054;50.966;7.094;2023-04-02T00:26:05;9.38;;;7.45;;
11988;SDS011;6054;50.966;7.094;2023-04-02T00:28:45;11.30;;;8.05;;
11988;SDS011;6054;50.966;7.094;2023-04-02T00:31:12;14.68;;;8.25;;
11988;SDS011;6054;50.966;7.094;2023-04-02T00:33:41;15.85;;;9.23;;
11988;SDS011;6054;50.966;7.094;2023-04-02T00:36:10;16.00;;;8.55;;
11988;SDS011;6054;50.966;7.094;2023-04-02T00:38:38;18.90;;;9.15;;
11988;SDS011;6054;50.966;7.094;2023-04-02T00:41:11;10.55;;;7.78;;
11988;SDS011;6054;50.966;7.094;2023-04-02T00:43:41;15.25;;;8.40;;
11988;SDS011;6054;50.966;7.094;2023-04-02T00:46:15;11.25;;;7.72;;
11988;SDS011;6054;50.966;7.094;2023-04-02T00:48:48;17.50;;;8.00;;
11988;SDS011;6054;50.966;7.094;2023-04-02T00:51:21;11.75;;;7.85;;
11988;SDS011;6054;50.966;7.094;2023-04-02T01:01:33;16.35;;;8.48;;
11988;SDS011;6054;50.966;7.094;2023-04-02T01:04:02;13.75;;;8.35;;
11988;SDS011;6054;50.966;7.094;2023-04-02T01:06:31;19.65;;;9.05;;
11988;SDS011;6054;50.966;7.094;2023-04-02T01:09:10;11.20;;;8.00;;
11988;SDS011;6054;50.966;7.094;2023-04-02T01:11:49;14.00;;;8.50;;
11988;SDS011;6054;50.966;7.094;2023-04-02T01:14:29;10.35;;;8.23;;
11988;SDS011;6054;50.966;7.094;2023-04-02T01:17:06;18.23;;;9.13;;
11988;SDS011;6054;50.966;7.094;2023-04-02T01:22:57;2.30;;;2.13;;
11988;SDS011;6054;50.966;7.094;2023-04-02T01:25:33;4.10;;;2.00;;
11988;SDS011;6054;50.966;7.094;2023-04-02T01:28:06;1.77;;;1.67;;
11988;SDS011;6054;50.966;7.094;2023-04-02T01:30:40;2.22;;;1.60;;
11988;SDS011;6054;50.966;7.094;2023-04-02T01:33:10;1.85;;;1.75;;
11988;SDS011;6054;50.966;7.094;2023-04-02T01:35:38;1.65;;;1.50;;
11988;SDS011;6054;50.966;7.094;2023-04-02T01:38:10;1.67;;;1.58;;
11988;SDS011;6054;50.966;7.094;2023-04-02T01:40:44;3.67;;;1.73;;
11988;SDS011;6054;50.966;7.094;2023-04-02T01:43:17;2.25;;;1.40;;
11988;SDS011;6054;50.966;7.094;2023-04-02T01:45:50;1.60;;;1.50;;
11988;SDS011;6054;50.966;7.094;2023-04-02T01:48:17;2.08;;;1.70;;
11988;SDS011;6054;50.966;7.094;2023-04-02T01:50:48;3.00;;;1.55;;
11988;SDS011;6054;50.966;7.094;2023-04-02T01:53:19;1.40;;;1.27;;
11988;SDS011;6054;50.966;7.094;2023-04-02T01:55:51;1.60;;;1.50;;
11988;SDS011;6054;50.966;7.094;2023-04-02T01:58:21;1.80;;;1.70;;
11988;SDS011;6054;50.966;7.094;2023-04-02T02:00:51;2.20;;;1.42;;
11988;SDS011;6054;50.966;7.094;2023-04-02T02:03:22;1.40;;;1.25;;
11988;SDS011;6054;50.966;7.094;2023-04-02T02:05:49;1.95;;;1.30;;
11988;SDS011;6054;50.966;7.094;2023-04-02T02:08:22;1.73;;;1.38;;
11988;SDS011;6054;50.966;7.094;2023-04-02T02:10:55;0.93;;;0.93;;
11988;SDS011;6054;50.966;7.094;2023-04-02T02:13:23;1.40;;;1.30;;
11988;SDS011;6054;50.966;7.094;2023-04-02T02:15:51;1.65;;;1.40;;
11988;SDS011;6054;50.966;7.094;2023-04-02T02:18:21;1.73;;;1.42;;
11988;SDS011;6054;50.966;7.094;2023-04-02T02:20:48;1.50;;;1.40;;
11988;SDS011;6054;50.966;7.094;2023-04-02T02:23:17;2.85;;;1.70;;
11988;SDS011;6054;50.966;7.094;2023-04-02T02:25:45;1.77;;;1.73;;
11988;SDS011;6054;50.966;7.094;2023-04-02T02:28:12;2.25;;;2.10;;
11988;SDS011;6054;50.966;7.094;2023-04-02T02:30:43;2.35;;;1.88;;
11988;SDS011;6054;50.966;7.094;2023-04-02T02:33:16;1.80;;;1.70;;
11988;SDS011;6054;50.966;7.094;2023-04-02T02:35:47;2.05;;;1.95;;
11988;SDS011;6054;50.966;7.094;2023-04-02T02:38:30;2.75;;;1.90;;
11988;SDS011;6054;50.966;7.094;2023-04-02T02:41:11;2.05;;;1.92;;
11988;SDS011;6054;50.966;7.094;2023-04-02T02:43:43;2.10;;;2.00;;
11988;SDS011;6054;50.966;7.094;2023-04-02T02:46:24;2.30;;;2.10;;
11988;SDS011;6054;50.966;7.094;2023-04-02T02:48:55;2.65;;;2.47;;
11988;SDS011;6054;50.966;7.094;2023-04-02T02:51:25;2.60;;;2.42;;
11988;SDS011;6054;50.966;7.094;2023-04-02T02:53:54;2.67;;;2.58;;
11988;SDS011;6054;50.966;7.094;2023-04-02T02:56:25;3.08;;;2.30;;
11988;SDS011;6054;50.966;7.094;2023-04-02T02:58:53;3.00;;;2.70;;
11988;SDS011;6054;50.966;7.094;2023-04-02T03:01:20;2.35;;;2.25;;
11988;SDS011;6054;50.966;7.094;2023-04-02T03:03:47;2.40;;;2.30;;
11988;SDS011;6054;50.966;7.094;2023-04-02T03:06:20;2.42;;;2.33;;
11988;SDS011;6054;50.966;7.094;2023-04-02T03:08:48;3.35;;;2.47;;
11988;SDS011;6054;50.966;7.094;2023-04-02T03:11:22;2.58;;;2.38;;
11988;SDS011;6054;50.966;7.094;2023-04-02T03:13:52;2.80;;;2.60;;
11988;SDS011;6054;50.966;7.094;2023-04-02T03:16:27;2.65;;;2.47;;
11988;SDS011;6054;50.966;7.094;2023-04-02T03:19:00;3.00;;;2.80;;
11988;SDS011;6054;50.966;7.094;2023-04-02T03:21:33;3.08;;;2.80;;
11988;SDS011;6054;50.966;7.094;2023-04-02T03:24:05;3.50;;;3.20;;
11988;SDS011;6054;50.966;7.094;2023-04-02T03:26:38;4.07;;;3.45;;
11988;SDS011;6054;50.966;7.094;2023-04-02T03:29:11;3.47;;;3.28;;
11988;SDS011;6054;50.966;7.094;2023-04-02T03:31:43;3.22;;;3.03;;
11988;SDS011;6054;50.966;7.094;2023-04-02T03:34:15;3.30;;;3.10;;
11988;SDS011;6054;50.966;7.094;2023-04-02T03:36:48;2.88;;;2.67;;
11988;SDS011;6054;50.966;7.094;2023-04-02T03:39:21;2.90;;;2.70;;
11988;SDS011;6054;50.966;7.094;2023-04-02T03:41:53;2.97;;;2.78;;
11988;SDS011;6054;50.966;7.094;2023-04-02T03:44:24;3.17;;;2.97;;
11988;SDS011;6054;50.966;7.094;2023-04-02T03:46:54;3.97;;;3.67;;
11988;SDS011;6054;50.966;7.094;2023-04-02T03:49:27;3.38;;;3.17;;
11988;SDS011;6054;50.966;7.094;2023-04-02T03:52:01;3.63;;;3.33;;
11988;SDS011;6054;50.966;7.094;2023-04-02T03:54:30;3.85;;;3.55;;
11988;SDS011;6054;50.966;7.094;2023-04-02T03:56:58;4.10;;;3.70;;
11988;SDS011;6054;50.966;7.094;2023-04-02T03:59:27;3.97;;;3.67;;
11988;SDS011;6054;50.966;7.094;2023-04-02T04:02:08;4.22;;;3.92;;
11988;SDS011;6054;50.966;7.094;2023-04-02T04:04:40;4.38;;;3.88;;
11988;SDS011;6054;50.966;7.094;2023-04-02T04:07:14;4.68;;;4.28;;
11988;SDS011;6054;50.966;7.094;2023-04-02T04:09:46;4.47;;;4.18;;
11988;SDS011;6054;50.966;7.094;2023-04-02T04:12:18;5.60;;;5.10;;
11988;SDS011;6054;50.966;7.094;2023-04-02T04:14:51;4.88;;;4.47;;
11988;SDS011;6054;50.966;7.094;2023-04-02T04:17:23;5.07;;;4.57;;
11988;SDS011;6054;50.966;7.094;2023-04-02T04:19:57;4.88;;;4.38;;
11988;SDS011;6054;50.966;7.094;2023-04-02T04:22:33;4.75;;;4.35;;
11988;SDS011;6054;50.966;7.094;2023-04-02T04:25:00;4.90;;;4.50;;
11988;SDS011;6054;50.966;7.094;2023-04-02T04:27:30;4.32;;;4.03;;
11988;SDS011;6054;50.966;7.094;2023-04-02T04:30:11;4.55;;;4.25;;
11988;SDS011;6054;50.966;7.094;2023-04-02T04:32:44;4.10;;;3.80;;
11988;SDS011;6054;50.966;7.094;2023-04-02T04:35:15;4.40;;;4.10;;
11988;SDS011;6054;50.966;7.094;2023-04-02T04:37:48;3.85;;;3.55;;
11988;SDS011;6054;50.966;7.094;2023-04-02T04:40:23;3.95;;;3.65;;
11988;SDS011;6054;50.966;7.094;2023-04-02T04:42:54;3.85;;;3.60;;
11988;SDS011;6054;50.966;7.094;2023-04-02T04:45:35;3.97;;;3.67;;
11988;SDS011;6054;50.966;7.094;2023-04-02T04:48:07;4.00;;;3.70;;
11988;SDS011;6054;50.966;7.094;2023-04-02T04:50:45;3.35;;;3.15;;
11988;SDS011;6054;50.966;7.094;2023-04-02T04:53:17;3.42;;;3.20;;
11988;SDS011;6054;50.966;7.094;2023-04-02T04:55:47;3.45;;;3.15;;
11988;SDS011;6054;50.966;7.094;2023-04-02T04:58:18;4.45;;;3.28;;
11988;SDS011;6054;50.966;7.094;2023-04-02T05:00:51;3.00;;;2.80;;
11988;SDS011;6054;50.966;7.094;2023-04-02T05:03:25;3.05;;;2.85;;
11988;SDS011;6054;50.966;7.094;2023-04-02T05:06:00;3.05;;;2.85;;
11988;SDS011;6054;50.966;7.094;2023-04-02T05:08:35;2.90;;;2.70;;
11988;SDS011;6054;50.966;7.094;2023-04-02T05:11:07;2.58;;;2.47;;
11988;SDS011;6054;50.966;7.094;2023-04-02T05:13:39;2.60;;;2.45;;
11988;SDS011;6054;50.966;7.094;2023-04-02T05:16:12;3.27;;;2.80;;
11988;SDS011;6054;50.966;7.094;2023-04-02T05:18:43;2.88;;;2.67;;
11988;SDS011;6054;50.966;7.094;2023-04-02T05:21:15;2.90;;;2.70;;
11988;SDS011;6054;50.966;7.094;2023-04-02T05:23:49;3.00;;;2.80;;
11988;SDS011;6054;50.966;7.094;2023-04-02T05:26:23;3.03;;;2.83;;
11988;SDS011;6054;50.966;7.094;2023-04-02T05:28:55;2.80;;;2.60;;
11988;SDS011;6054;50.966;7.094;2023-04-02T05:31:26;2.97;;;2.78;;
11988;SDS011;6054;50.966;7.094;2023-04-02T05:34:01;2.65;;;2.50;;
11988;SDS011;6054;50.966;7.094;2023-04-02T05:36:28;2.90;;;2.70;;
11988;SDS011;6054;50.966;7.094;2023-04-02T05:38:57;3.10;;;2.90;;
11988;SDS011;6054;50.966;7.094;2023-04-02T05:41:25;3.28;;;2.97;;
11988;SDS011;6054;50.966;7.094;2023-04-02T05:43:59;3.13;;;2.92;;
11988;SDS011;6054;50.966;7.094;2023-04-02T05:46:33;3.67;;;3.22;;
11988;SDS011;6054;50.966;7.094;2023-04-02T05:49:03;3.22;;;3.00;;
11988;SDS011;6054;50.966;7.094;2023-04-02T05:51:35;3.30;;;3.10;;
11988;SDS011;6054;50.966;7.094;2023-04-02T05:54:13;3.20;;;3.00;;
11988;SDS011;6054;50.966;7.094;2023-04-02T05:56:47;3.30;;;3.10;;
11988;SDS011;6054;50.966;7.094;2023-04-02T05:59:19;3.25;;;3.05;;
11988;SDS011;6054;50.966;7.094;2023-04-02T06:01:50;3.80;;;3.40;;
11988;SDS011;6054;50.966;7.094;2023-04-02T06:04:23;3.17;;;2.97;;
11988;SDS011;6054;50.966;7.094;2023-04-02T06:06:58;3.15;;;2.95;;
11988;SDS011;6054;50.966;7.094;2023-04-02T06:09:35;3.25;;;3.05;;
11988;SDS011;6054;50.966;7.094;2023-04-02T06:12:17;3.20;;;3.00;;
11988;SDS011;6054;50.966;7.094;2023-04-02T06:14:48;3.20;;;3.00;;
11988;SDS011;6054;50.966;7.094;2023-04-02T06:17:17;3.05;;;2.80;;
11988;SDS011;6054;50.966;7.094;2023-04-02T06:19:45;3.50;;;3.22;;
11988;SDS011;6054;50.966;7.094;2023-04-02T06:22:18;2.90;;;2.70;;
11988;SDS011;6054;50.966;7.094;2023-04-02T06:24:51;3.17;;;2.97;;
11988;SDS011;6054;50.966;7.094;2023-04-02T06:27:23;2.90;;;2.70;;
11988;SDS011;6054;50.966;7.094;2023-04-02T06:29:52;3.08;;;2.88;;
11988;SDS011;6054;50.966;7.094;2023-04-02T06:32:23;3.05;;;2.80;;
11988;SDS011;6054;50.966;7.094;2023-04-02T06:34:50;3.17;;;2.97;;
11988;SDS011;6054;50.966;7.094;2023-04-02T06:37:20;2.90;;;2.80;;
11988;SDS011;6054;50.966;7.094;2023-04-02T06:39:52;2.80;;;2.60;;
11988;SDS011;6054;50.966;7.094;2023-04-02T06:42:21;3.05;;;2.85;;
11988;SDS011;6054;50.966;7.094;2023-04-02T06:44:51;2.90;;;2.70;;
11988;SDS011;6054;50.966;7.094;2023-04-02T06:47:25;3.42;;;3.13;;
11988;SDS011;6054;50.966;7.094;2023-04-02T06:49:56;3.38;;;3.08;;
11988;SDS011;6054;50.966;7.094;2023-04-02T06:52:29;3.90;;;3.47;;
11988;SDS011;6054;50.966;7.094;2023-04-02T06:55:05;3.75;;;3.10;;
11988;SDS011;6054;50.966;7.094;2023-04-02T06:57:46;3.45;;;3.15;;
11988;SDS011;6054;50.966;7.094;2023-04-02T07:00:16;3.63;;;3.35;;
11988;SDS011;6054;50.966;7.094;2023-04-02T07:02:49;3.28;;;3.03;;
11988;SDS011;6054;50.966;7.094;2023-04-02T07:05:17;3.80;;;3.50;;
11988;SDS011;6054;50.966;7.094;2023-04-02T07:07:44;3.70;;;3.40;;
11988;SDS011;6054;50.966;7.094;2023-04-02T07:10:12;3.47;;;3.28;;
11988;SDS011;6054;50.966;7.094;2023-04-02T07:12:39;5.63;;;4.35;;
11988;SDS011;6054;50.966;7.094;2023-04-02T07:15:06;4.70;;;3.95;;
11988;SDS011;6054;50.966;7.094;2023-04-02T07:17:36;4.30;;;3.90;;
11988;SDS011;6054;50.966;7.094;2023-04-02T07:20:03;4.03;;;3.60;;
11988;SDS011;6054;50.966;7.094;2023-04-02T07:22:30;4.40;;;4.00;;
11988;SDS011;6054;50.966;7.094;2023-04-02T07:24:57;4.35;;;3.92;;
11988;SDS011;6054;50.966;7.094;2023-04-02T07:27:25;4.22;;;3.85;;
11988;SDS011;6054;50.966;7.094;2023-04-02T07:29:52;4.45;;;4.05;;
11988;SDS011;6054;50.966;7.094;2023-04-02T07:32:19;4.18;;;3.88;;
11988;SDS011;6054;50.966;7.094;2023-04-02T07:34:45;4.30;;;3.83;;
11988;SDS011;6054;50.966;7.094;2023-04-02T07:37:13;4.20;;;3.80;;
11988;SDS011;6054;50.966;7.094;2023-04-02T07:39:39;4.80;;;3.90;;
11988;SDS011;6054;50.966;7.094;2023-04-02T07:42:06;3.78;;;3.47;;
11988;SDS011;6054;50.966;7.094;2023-04-02T07:44:34;4.35;;;3.75;;
11988;SDS011;6054;50.966;7.094;2023-04-02T07:47:01;5.13;;;3.90;;
11988;SDS011;6054;50.966;7.094;2023-04-02T07:49:28;4.18;;;3.88;;
11988;SDS011;6054;50.966;7.094;2023-04-02T07:51:55;5.28;;;4.15;;
11988;SDS011;6054;50.966;7.094;2023-04-02T07:54:22;4.75;;;4.00;;
11988;SDS011;6054;50.966;7.094;2023-04-02T07:56:49;4.80;;;4.18;;
11988;SDS011;6054;50.966;7.094;2023-04-02T07:59:15;3.95;;;3.65;;
11988;SDS011;6054;50.966;7.094;2023-04-02T08:01:43;3.70;;;3.40;;
11988;SDS011;6054;50.966;7.094;2023-04-02T08:04:14;4.20;;;3.80;;
11988;SDS011;6054;50.966;7.094;2023-04-02T08:06:43;3.95;;;3.58;;
11988;SDS011;6054;50.966;7.094;2023-04-02T08:09:11;4.75;;;3.60;;
11988;SDS011;6054;50.966;7.094;2023-04-02T08:11:38;4.07;;;3.75;;
11988;SDS011;6054;50.966;7.094;2023-04-02T08:14:06;6.05;;;4.10;;
11988;SDS011;6054;50.966;7.094;2023-04-02T08:16:43;4.00;;;3.60;;
11988;SDS011;6054;50.966;7.094;2023-04-02T08:19:11;4.85;;;3.92;;
11988;SDS011;6054;50.966;7.094;2023-04-02T08:21:38;3.67;;;3.38;;
11988;SDS011;6054;50.966;7.094;2023-04-02T08:24:05;5.35;;;4.07;;
11988;SDS011;6054;50.966;7.094;2023-04-02T08:26:32;5.13;;;4.57;;
11988;SDS011;6054;50.966;7.094;2023-04-02T08:28:59;5.45;;;4.40;;
11988;SDS011;6054;50.966;7.094;2023-04-02T08:31:25;5.00;;;4.50;;
11988;SDS011;6054;50.966;7.094;2023-04-02T08:33:53;4.28;;;3.90;;
11988;SDS011;6054;50.966;7.094;2023-04-02T08:36:23;4.80;;;4.38;;
11988;SDS011;6054;50.966;7.094;2023-04-02T08:38:53;4.95;;;4.45;;
11988;SDS011;6054;50.966;7.094;2023-04-02T08:41:20;5.10;;;4.60;;
11988;SDS011;6054;50.966;7.094;2023-04-02T08:43:58;4.72;;;4.00;;
11988;SDS011;6054;50.966;7.094;2023-04-02T08:46:35;5.85;;;4.53;;
11988;SDS011;6054;50.966;7.094;2023-04-02T08:49:10;6.03;;;4.50;;
11988;SDS011;6054;50.966;7.094;2023-04-02T08:51:39;7.32;;;5.43;;
11988;SDS011;6054;50.966;7.094;2023-04-02T08:54:08;5.50;;;4.72;;
11988;SDS011;6054;50.966;7.094;2023-04-02T08:56:42;6.63;;;5.15;;
11988;SDS011;6054;50.966;7.094;2023-04-02T08:59:15;5.72;;;5.13;;
11988;SDS011;6054;50.966;7.094;2023-04-02T09:01:48;6.25;;;4.78;;
11988;SDS011;6054;50.966;7.094;2023-04-02T09:04:24;6.10;;;5.32;;
11988;SDS011;6054;50.966;7.094;2023-04-02T09:06:52;6.15;;;5.05;;
11988;SDS011;6054;50.966;7.094;2023-04-02T09:09:21;6.07;;;5.13;;
11988;SDS011;6054;50.966;7.094;2023-04-02T09:11:49;7.70;;;5.15;;
11988;SDS011;6054;50.966;7.094;2023-04-02T09:14:20;5.97;;;3.90;;
11988;SDS011;6054;50.966;7.094;2023-04-02T09:16:51;5.32;;;4.53;;
11988;SDS011;6054;50.966;7.094;2023-04-02T09:19:21;5.32;;;4.57;;
11988;SDS011;6054;50.966;7.094;2023-04-02T09:21:56;5.40;;;4.10;;
11988;SDS011;6054;50.966;7.094;2023-04-02T09:24:30;4.20;;;3.80;;
11988;SDS011;6054;50.966;7.094;2023-04-02T09:26:57;4.95;;;4.15;;
11988;SDS011;6054;50.966;7.094;2023-04-02T09:29:27;4.32;;;3.92;;
11988;SDS011;6054;50.966;7.094;2023-04-02T09:32:07;6.65;;;3.95;;
11988;SDS011;6054;50.966;7.094;2023-04-02T09:34:44;4.53;;;4.13;;
11988;SDS011;6054;50.966;7.094;2023-04-02T09:37:13;5.03;;;4.60;;
11988;SDS011;6054;50.966;7.094;2023-04-02T09:39:42;5.35;;;4.50;;
11988;SDS011;6054;50.966;7.094;2023-04-02T09:42:26;5.25;;;4.18;;
11988;SDS011;6054;50.966;7.094;2023-04-02T09:45:06;5.22;;;4.28;;
11988;SDS011;6054;50.966;7.094;2023-04-02T09:47:44;4.90;;;4.43;;
11988;SDS011;6054;50.966;7.094;2023-04-02T09:50:14;7.32;;;4.88;;
11988;SDS011;6054;50.966;7.094;2023-04-02T09:52:50;5.97;;;4.80;;
11988;SDS011;6054;50.966;7.094;2023-04-02T09:55:19;6.45;;;5.22;;
11988;SDS011;6054;50.966;7.094;2023-04-02T09:58:05;5.70;;;4.88;;
11988;SDS011;6054;50.966;7.094;2023-04-02T10:00:35;6.05;;;4.65;;
11988;SDS011;6054;50.966;7.094;2023-04-02T10:03:04;7.72;;;4.40;;
11988;SDS011;6054;50.966;7.094;2023-04-02T10:05:33;6.97;;;4.93;;
11988;SDS011;6054;50.966;7.094;2023-04-02T10:08:08;5.20;;;4.70;;
11988;SDS011;6054;50.966;7.094;2023-04-02T10:10:43;7.22;;;5.18;;
11988;SDS011;6054;50.966;7.094;2023-04-02T10:13:16;6.72;;;5.60;;
11988;SDS011;6054;50.966;7.094;2023-04-02T10:15:49;5.80;;;4.85;;
11988;SDS011;6054;50.966;7.094;2023-04-02T10:18:20;6.00;;;4.82;;
11988;SDS011;6054;50.966;7.094;2023-04-02T10:20:56;8.00;;;4.90;;
11988;SDS011;6054;50.966;7.094;2023-04-02T10:23:26;5.32;;;4.35;;
11988;SDS011;6054;50.966;7.094;2023-04-02T10:25:56;6.55;;;5.13;;
11988;SDS011;6054;50.966;7.094;2023-04-02T10:28:36;5.78;;;4.38;;
11988;SDS011;6054;50.966;7.094;2023-04-02T10:31:12;4.97;;;4.47;;
11988;SDS011;6054;50.966;7.094;2023-04-02T10:33:47;5.88;;;4.35;;
11988;SDS011;6054;50.966;7.094;2023-04-02T10:36:21;5.10;;;4.60;;
11988;SDS011;6054;50.966;7.094;2023-04-02T10:38:55;5.32;;;4.55;;
11988;SDS011;6054;50.966;7.094;2023-04-02T10:41:30;5.30;;;4.80;;
11988;SDS011;6054;50.966;7.094;2023-04-02T10:44:10;6.18;;;4.30;;
11988;SDS011;6054;50.966;7.094;2023-04-02T10:46:53;4.80;;;4.07;;
11988;SDS011;6054;50.966;7.094;2023-04-02T10:49:29;5.22;;;4.28;;
11988;SDS011;6054;50.966;7.094;2023-04-02T10:52:03;4.25;;;3.95;;
11988;SDS011;6054;50.966;7.094;2023-04-02T10:54:36;4.82;;;4.32;;
11988;SDS011;6054;50.966;7.094;2023-04-02T10:57:11;4.60;;;4.18;;
11988;SDS011;6054;50.966;7.094;2023-04-02T10:59:47;5.82;;;4.05;;
11988;SDS011;6054;50.966;7.094;2023-04-02T11:02:24;4.38;;;3.97;;
11988;SDS011;6054;50.966;7.094;2023-04-02T11:04:57;5.45;;;4.50;;
11988;SDS011;6054;50.966;7.094;2023-04-02T11:07:33;6.13;;;4.57;;
11988;SDS011;6054;50.966;7.094;2023-04-02T11:10:10;4.10;;;3.78;;
11988;SDS011;6054;50.966;7.094;2023-04-02T11:12:40;7.93;;;4.97;;
11988;SDS011;6054;50.966;7.094;2023-04-02T11:15:14;4.20;;;3.85;;
11988;SDS011;6054;50.966;7.094;2023-04-02T11:17:43;4.13;;;3.72;;
11988;SDS011;6054;50.966;7.094;2023-04-02T11:23:25;5.22;;;3.88;;
11988;SDS011;6054;50.966;7.094;2023-04-02T11:31:40;3.95;;;2.85;;
11988;SDS011;6054;50.966;7.094;2023-04-02T11:34:10;4.35;;;3.22;;
11988;SDS011;6054;50.966;7.094;2023-04-02T11:37:02;3.13;;;2.90;;
11988;SDS011;6054;50.966;7.094;2023-04-02T11:39:53;3.70;;;3.05;;
11988;SDS011;6054;50.966;7.094;2023-04-02T11:42:24;3.53;;;3.33;;
11988;SDS011;6054;50.966;7.094;2023-04-02T11:44:57;4.20;;;3.20;;
11988;SDS011;6054;50.966;7.094;2023-04-02T11:47:27;5.78;;;3.70;;
11988;SDS011;6054;50.966;7.094;2023-04-02T11:50:00;3.67;;;3.22;;
11988;SDS011;6054;50.966;7.094;2023-04-02T11:52:33;5.72;;;3.95;;
11988;SDS011;6054;50.966;7.094;2023-04-02T11:55:16;4.38;;;3.47;;
11988;SDS011;6054;50.966;7.094;2023-04-02T12:01:01;4.70;;;3.30;;
11988;SDS011;6054;50.966;7.094;2023-04-02T12:07:02;4.05;;;3.42;;
11988;SDS011;6054;50.966;7.094;2023-04-02T12:09:51;5.10;;;3.67;;
11988;SDS011;6054;50.966;7.094;2023-04-02T12:12:25;6.65;;;4.00;;
11988;SDS011;6054;50.966;7.094;2023-04-02T12:14:57;4.43;;;3.25;;
11988;SDS011;6054;50.966;7.094;2023-04-02T12:17:25;4.95;;;3.70;;
11988;SDS011;6054;50.966;7.094;2023-04-02T12:19:55;4.13;;;3.72;;
11988;SDS011;6054;50.966;7.094;2023-04-02T12:22:24;4.47;;;3.65;;
11988;SDS011;6054;50.966;7.094;2023-04-02T12:24:53;4.05;;;3.70;;
11988;SDS011;6054;50.966;7.094;2023-04-02T12:27:25;4.93;;;4.50;;
11988;SDS011;6054;50.966;7.094;2023-04-02T12:29:53;5.32;;;4.07;;
11988;SDS011;6054;50.966;7.094;2023-04-02T12:32:25;4.80;;;3.90;;
11988;SDS011;6054;50.966;7.094;2023-04-02T12:34:53;5.53;;;4.10;;
11988;SDS011;6054;50.966;7.094;2023-04-02T12:37:22;4.63;;;4.20;;
11988;SDS011;6054;50.966;7.094;2023-04-02T12:39:51;4.72;;;4.20;;
11988;SDS011;6054;50.966;7.094;2023-04-02T12:42:29;5.68;;;4.07;;
11988;SDS011;6054;50.966;7.094;2023-04-02T12:44:57;4.78;;;4.32;;
11988;SDS011;6054;50.966;7.094;2023-04-02T12:47:24;5.07;;;4.60;;
11988;SDS011;6054;50.966;7.094;2023-04-02T12:49:52;4.30;;;3.80;;
11988;SDS011;6054;50.966;7.094;2023-04-02T12:52:20;4.15;;;3.83;;
11988;SDS011;6054;50.966;7.094;2023-04-02T12:54:53;4.10;;;3.78;;
11988;SDS011;6054;50.966;7.094;2023-04-02T12:57:31;6.53;;;3.83;;
11988;SDS011;6054;50.966;7.094;2023-04-02T13:02:57;8.02;;;4.03;;
11988;SDS011;6054;50.966;7.094;2023-04-02T13:05:32;4.05;;;3.65;;
11988;SDS011;6054;50.966;7.094;2023-04-02T13:08:01;3.85;;;3.50;;
11988;SDS011;6054;50.966;7.094;2023-04-02T13:10:29;5.80;;;3.42;;
11988;SDS011;6054;50.966;7.094;2023-04-02T13:12:58;6.43;;;3.60;;
11988;SDS011;6054;50.966;7.094;2023-04-02T13:15:27;5.25;;;3.40;;
11988;SDS011;6054;50.966;7.094;2023-04-02T13:18:04;5.85;;;3.67;;
11988;SDS011;6054;50.966;7.094;2023-04-02T13:20:42;4.03;;;3.20;;
11988;SDS011;6054;50.966;7.094;2023-04-02T13:23:28;3.60;;;3.30;;
11988;SDS011;6054;50.966;7.094;2023-04-02T13:25:58;3.15;;;2.95;;
11988;SDS011;6054;50.966;7.094;2023-04-02T13:28:28;4.40;;;3.15;;
11988;SDS011;6054;50.966;7.094;2023-04-02T13:30:55;3.88;;;3.20;;
11988;SDS011;6054;50.966;7.094;2023-04-02T13:33:22;3.33;;;2.88;;
11988;SDS011;6054;50.966;7.094;2023-04-02T13:35:48;3.60;;;2.72;;
11988;SDS011;6054;50.966;7.094;2023-04-02T13:38:15;2.83;;;2.63;;
11988;SDS011;6054;50.966;7.094;2023-04-02T13:40:42;3.10;;;2.60;;
11988;SDS011;6054;50.966;7.094;2023-04-02T13:43:10;4.80;;;2.70;;
11988;SDS011;6054;50.966;7.094;2023-04-02T13:45:44;3.05;;;2.70;;
11988;SDS011;6054;50.966;7.094;2023-04-02T13:48:15;3.83;;;3.00;;
11988;SDS011;6054;50.966;7.094;2023-04-02T13:50:43;4.90;;;2.70;;
11988;SDS011;6054;50.966;7.094;2023-04-02T13:53:12;2.30;;;2.10;;
11988;SDS011;6054;50.966;7.094;2023-04-02T13:56:00;2.05;;;1.92;;
11988;SDS011;6054;50.966;7.094;2023-04-02T13:58:27;2.30;;;2.10;;
11988;SDS011;6054;50.966;7.094;2023-04-02T14:00:55;2.97;;;2.70;;
11988;SDS011;6054;50.966;7.094;2023-04-02T14:03:22;3.17;;;2.38;;
11988;SDS011;6054;50.966;7.094;2023-04-02T14:05:50;1.92;;;1.80;;
11988;SDS011;6054;50.966;7.094;2023-04-02T14:08:23;1.98;;;1.70;;
11988;SDS011;6054;50.966;7.094;2023-04-02T14:11:00;2.00;;;1.90;;
11988;SDS011;6054;50.966;7.094;2023-04-02T14:13:39;2.28;;;2.05;;
11988;SDS011;6054;50.966;7.094;2023-04-02T14:16:20;2.28;;;1.83;;
11988;SDS011;6054;50.966;7.094;2023-04-02T14:19:05;2.42;;;1.63;;
11988;SDS011;6054;50.966;7.094;2023-04-02T14:21:45;2.08;;;1.70;;
11988;SDS011;6054;50.966;7.094;2023-04-02T14:24:22;1.80;;;1.70;;
11988;SDS011;6054;50.966;7.094;2023-04-02T14:27:03;3.03;;;1.90;;
11988;SDS011;6054;50.966;7.094;2023-04-02T14:29:38;1.80;;;1.70;;
11988;SDS011;6054;50.966;7.094;2023-04-02T14:32:13;1.55;;;1.45;;
11988;SDS011;6054;50.966;7.094;2023-04-02T14:34:44;1.80;;;1.70;;
11988;SDS011;6054;50.966;7.094;2023-04-02T14:37:19;2.25;;;1.90;;
11988;SDS011;6054;50.966;7.094;2023-04-02T14:39:56;1.90;;;1.80;;
11988;SDS011;6054;50.966;7.094;2023-04-02T14:42:32;2.17;;;1.70;;
11988;SDS011;6054;50.966;7.094;2023-04-02T14:45:06;4.38;;;1.55;;
11988;SDS011;6054;50.966;7.094;2023-04-02T14:47:40;2.03;;;1.83;;
11988;SDS011;6054;50.966;7.094;2023-04-02T14:50:11;3.20;;;2.00;;
11988;SDS011;6054;50.966;7.094;2023-04-02T14:52:43;4.57;;;2.15;;
11988;SDS011;6054;50.966;7.094;2023-04-02T14:55:13;5.38;;;2.30;;
11988;SDS011;6054;50.966;7.094;2023-04-02T14:57:49;2.97;;;2.20;;
11988;SDS011;6054;50.966;7.094;2023-04-02T15:00:24;2.28;;;2.08;;
11988;SDS011;6054;50.966;7.094;2023-04-02T15:02:57;1.80;;;1.70;;
11988;SDS011;6054;50.966;7.094;2023-04-02T15:05:32;3.33;;;1.90;;
11988;SDS011;6054;50.966;7.094;2023-04-02T15:08:05;3.15;;;1.95;;
11988;SDS011;6054;50.966;7.094;2023-04-02T15:10:38;2.28;;;1.92;;
11988;SDS011;6054;50.966;7.094;2023-04-02T15:13:15;2.17;;;1.90;;
11988;SDS011;6054;50.966;7.094;2023-04-02T15:15:48;2.85;;;2.65;;
11988;SDS011;6054;50.966;7.094;2023-04-02T15:18:21;3.70;;;1.95;;
11988;SDS011;6054;50.966;7.094;2023-04-02T15:20:52;2.33;;;2.05;;
11988;SDS011;6054;50.966;7.094;2023-04-02T15:23:26;2.05;;;1.83;;
11988;SDS011;6054;50.966;7.094;2023-04-02T15:26:05;1.58;;;1.48;;
11988;SDS011;6054;50.966;7.094;2023-04-02T15:28:40;3.33;;;1.95;;
11988;SDS011;6054;50.966;7.094;2023-04-02T15:31:12;3.17;;;2.47;;
11988;SDS011;6054;50.966;7.094;2023-04-02T15:33:44;2.28;;;2.08;;
11988;SDS011;6054;50.966;7.094;2023-04-02T15:36:29;3.15;;;1.45;;
11988;SDS011;6054;50.966;7.094;2023-04-02T15:39:13;1.88;;;1.70;;
11988;SDS011;6054;50.966;7.094;2023-04-02T15:41:55;2.70;;;2.30;;
11988;SDS011;6054;50.966;7.094;2023-04-02T15:44:29;2.78;;;1.80;;
11988;SDS011;6054;50.966;7.094;2023-04-02T15:46:56;5.80;;;2.00;;
11988;SDS011;6054;50.966;7.094;2023-04-02T15:49:34;2.97;;;1.67;;
11988;SDS011;6054;50.966;7.094;2023-04-02T15:52:08;2.20;;;1.80;;
11988;SDS011;6054;50.966;7.094;2023-04-02T15:54:43;1.98;;;1.73;;
11988;SDS011;6054;50.966;7.094;2023-04-02T15:57:19;1.60;;;1.40;;
11988;SDS011;6054;50.966;7.094;2023-04-02T16:00:01;1.73;;;1.63;;
11988;SDS011;6054;50.966;7.094;2023-04-02T16:03:09;1.23;;;1.05;;
11988;SDS011;6054;50.966;7.094;2023-04-02T16:05:50;1.63;;;1.17;;